Time;durP1;ratioP1;P1;durP2;ratioP2;P2;SDS_P1;SDS_P2;PMS_P1;PMS_P2;Temp;Humidity;BMP_temperature;BMP_pressure;BME280_temperature;BME280_humidity;BME280_pressure;Samples;Min_cycle;Max_cycle;Signal;HPM_P1;HPM_P2
2021/10/06 00:01:47;;;;;;;0.45;0.40;;;;;;;;;;4987162;28;20033;-43
2021/10/06 00:04:13;;;;;;;11.48;0.85;;;;;;;;;;4984299;28;20041;-44
2021/10/06 00:06:40;;;;;;;4.95;1.58;;;;;;;;;;4988941;28;20101;-47
2021/10/06 00:09:06;;;;;;;0.73;0.57;;;;;;;;;;4989064;28;20055;-46
2021/10/06 00:11:40;;;;;;;4.43;0.90;;;;;;;;;;4985059;28;20050;-48
2021/10/06 00:14:08;;;;;;;2.33;0.50;;;;;;;;;;4989065;28;20087;-45
2021/10/06 00:16:33;;;;;;;6.82;1.20;;;;;;;;;;4986656;28;20087;-45
2021/10/06 00:19:11;;;;;;;3.00;1.25;;;;;;;;;;4989710;28;20026;-44
2021/10/06 00:21:36;;;;;;;1.67;0.85;;;;;;;;;;4984860;28;20026;-45
2021/10/06 00:24:01;;;;;;;5.53;1.23;;;;;;;;;;4990088;28;20079;-46
2021/10/06 00:26:27;;;;;;;1.63;0.85;;;;;;;;;;4987423;28;20402;-48
2021/10/06 00:28:52;;;;;;;1.83;1.02;;;;;;;;;;4985761;28;20574;-47
2021/10/06 00:31:17;;;;;;;3.38;0.85;;;;;;;;;;4993507;28;20459;-48
2021/10/06 00:33:48;;;;;;;3.25;0.73;;;;;;;;;;4983077;28;20025;-46
2021/10/06 00:36:16;;;;;;;1.70;0.57;;;;;;;;;;4981548;28;20029;-44
2021/10/06 00:38:42;;;;;;;1.75;0.93;;;;;;;;;;4988948;28;20090;-43
2021/10/06 00:41:07;;;;;;;8.15;1.35;;;;;;;;;;4984860;28;20030;-44
2021/10/06 00:43:32;;;;;;;1.63;0.35;;;;;;;;;;4987527;28;20604;-43
2021/10/06 00:45:58;;;;;;;0.82;0.30;;;;;;;;;;4985886;28;20029;-44
2021/10/06 00:48:23;;;;;;;2.03;1.13;;;;;;;;;;4979276;28;20418;-48
2021/10/06 00:50:48;;;;;;;0.93;0.28;;;;;;;;;;4985277;28;20022;-44
2021/10/06 00:53:14;;;;;;;1.50;0.75;;;;;;;;;;4985180;28;20029;-48
2021/10/06 00:55:45;;;;;;;2.47;0.80;;;;;;;;;;4988082;28;20029;-49
2021/10/06 00:58:10;;;;;;;;;;;;;;;;;;4987332;28;20533;-45
2021/10/06 01:00:38;;;;;;;3.72;1.35;;;;;;;;;;4989583;28;19909;-45
2021/10/06 01:03:03;;;;;;;7.75;1.15;;;;;;;;;;4988135;28;20030;-43
2021/10/06 01:05:30;;;;;;;4.20;1.77;;;;;;;;;;4989484;28;20026;-45
2021/10/06 01:07:55;;;;;;;2.47;0.85;;;;;;;;;;4987200;28;20137;-44
2021/10/06 01:10:21;;;;;;;1.10;0.70;;;;;;;;;;4986191;28;20251;-45
2021/10/06 01:12:46;;;;;;;2.35;0.93;;;;;;;;;;4991339;28;20045;-44
2021/10/06 01:15:12;;;;;;;4.82;1.08;;;;;;;;;;4990494;28;20502;-47
2021/10/06 01:17:38;;;;;;;3.15;1.65;;;;;;;;;;4993338;28;20030;-45
2021/10/06 01:20:04;;;;;;;6.43;0.52;;;;;;;;;;4988899;28;20665;-44
2021/10/06 01:22:32;;;;;;;2.15;1.00;;;;;;;;;;4987211;28;20118;-49
2021/10/06 01:25:00;;;;;;;2.40;0.40;;;;;;;;;;4988949;28;20038;-45
2021/10/06 01:27:25;;;;;;;4.35;0.60;;;;;;;;;;4991172;28;20030;-43
2021/10/06 01:29:50;;;;;;;1.38;0.77;;;;;;;;;;4987810;28;20465;-45
2021/10/06 01:32:17;;;;;;;4.30;1.73;;;;;;;;;;4988356;28;20560;-45
2021/10/06 01:34:42;;;;;;;3.38;0.90;;;;;;;;;;4992705;28;20034;-47
2021/10/06 01:37:08;;;;;;;9.43;1.45;;;;;;;;;;4987125;28;20056;-48
2021/10/06 01:39:34;;;;;;;3.63;1.23;;;;;;;;;;4990764;28;20511;-46
2021/10/06 01:41:59;;;;;;;8.18;1.30;;;;;;;;;;4989847;28;20112;-46
2021/10/06 01:44:24;;;;;;;3.65;1.00;;;;;;;;;;4988927;28;20272;-45
2021/10/06 01:46:50;;;;;;;3.50;1.30;;;;;;;;;;4991094;28;20514;-47
2021/10/06 01:49:16;;;;;;;1.50;0.75;;;;;;;;;;4992140;28;20018;-48
2021/10/06 01:51:41;;;;;;;1.02;0.60;;;;;;;;;;4992630;28;20026;-46
2021/10/06 01:54:07;;;;;;;0.60;0.40;;;;;;;;;;4994638;28;20022;-48
2021/10/06 01:56:36;;;;;;;2.55;0.85;;;;;;;;;;4988605;28;20608;-46
2021/10/06 01:59:05;;;;;;;1.50;1.33;;;;;;;;;;4988870;28;20041;-51
2021/10/06 02:01:30;;;;;;;1.00;0.50;;;;;;;;;;4982255;28;20026;-49
2021/10/06 02:03:56;;;;;;;0.98;0.50;;;;;;;;;;4993951;28;20033;-50
2021/10/06 02:06:26;;;;;;;14.23;1.50;;;;;;;;;;4989429;28;20124;-46
2021/10/06 02:08:51;;;;;;;0.57;0.35;;;;;;;;;;4988841;28;20033;-47
2021/10/06 02:11:17;;;;;;;10.73;1.30;;;;;;;;;;4991663;28;20026;-46
2021/10/06 02:13:42;;;;;;;3.72;1.67;;;;;;;;;;4991282;28;20506;-44
2021/10/06 02:16:07;;;;;;;10.38;2.30;;;;;;;;;;4987571;28;20535;-49
2021/10/06 02:18:33;;;;;;;2.05;1.42;;;;;;;;;;4987710;28;20030;-46
2021/10/06 02:20:58;;;;;;;1.85;1.48;;;;;;;;;;4989566;28;20029;-47
2021/10/06 02:23:23;;;;;;;2.80;1.73;;;;;;;;;;4985073;28;20037;-46
2021/10/06 02:25:48;;;;;;;3.05;1.50;;;;;;;;;;4983803;28;20030;-43
2021/10/06 02:28:14;;;;;;;3.80;2.10;;;;;;;;;;4986944;28;20682;-45
2021/10/06 02:30:39;;;;;;;5.82;1.85;;;;;;;;;;4987881;28;20494;-49
2021/10/06 02:33:05;;;;;;;1.98;1.45;;;;;;;;;;4986567;28;20129;-45
2021/10/06 02:35:30;;;;;;;2.88;1.45;;;;;;;;;;4992595;28;20712;-44
2021/10/06 02:37:55;;;;;;;4.80;1.45;;;;;;;;;;4987916;28;20037;-48
2021/10/06 02:40:21;;;;;;;3.28;1.10;;;;;;;;;;4988193;28;20019;-46
2021/10/06 02:42:47;;;;;;;7.50;1.75;;;;;;;;;;4990221;28;20533;-46
2021/10/06 02:45:13;;;;;;;3.22;1.30;;;;;;;;;;4989202;28;20042;-43
2021/10/06 02:47:39;;;;;;;3.75;1.42;;;;;;;;;;4988030;28;20022;-43
2021/10/06 02:50:06;;;;;;;1.63;0.73;;;;;;;;;;4991981;28;20395;-44
2021/10/06 02:52:31;;;;;;;2.42;1.52;;;;;;;;;;4989266;28;20056;-44
2021/10/06 02:54:56;;;;;;;5.35;1.20;;;;;;;;;;4985317;28;20057;-44
2021/10/06 02:57:22;;;;;;;4.35;1.55;;;;;;;;;;4989231;28;20108;-46
2021/10/06 02:59:47;;;;;;;1.42;0.70;;;;;;;;;;4985809;28;20424;-47
2021/10/06 03:02:12;;;;;;;4.72;1.23;;;;;;;;;;4990102;28;20116;-48
2021/10/06 03:04:37;;;;;;;2.97;0.77;;;;;;;;;;4990869;28;20677;-49
2021/10/06 03:07:05;;;;;;;5.78;1.02;;;;;;;;;;4987679;28;20037;-44
2021/10/06 03:09:31;;;;;;;1.52;0.88;;;;;;;;;;4990113;28;20041;-40
2021/10/06 03:11:56;;;;;;;2.20;0.85;;;;;;;;;;4990383;28;20026;-46
2021/10/06 03:14:21;;;;;;;2.42;1.10;;;;;;;;;;4988466;28;20036;-42
2021/10/06 03:16:46;;;;;;;1.02;0.65;;;;;;;;;;4990833;28;20073;-43
2021/10/06 03:19:12;;;;;;;1.77;0.88;;;;;;;;;;4989869;28;20045;-45
2021/10/06 03:21:37;;;;;;;2.80;1.42;;;;;;;;;;4989977;28;20036;-46
2021/10/06 03:24:02;;;;;;;1.77;0.98;;;;;;;;;;4988857;28;20509;-46
2021/10/06 03:26:28;;;;;;;1.15;1.05;;;;;;;;;;4991153;28;20846;-46
2021/10/06 03:28:53;;;;;;;2.40;1.48;;;;;;;;;;4990410;28;20030;-45
2021/10/06 03:31:18;;;;;;;1.63;0.98;;;;;;;;;;4988869;28;20053;-46
2021/10/06 03:33:44;;;;;;;7.32;1.10;;;;;;;;;;4986197;28;20026;-45
2021/10/06 03:36:09;;;;;;;5.93;2.03;;;;;;;;;;4983266;28;20026;-45
2021/10/06 03:38:34;;;;;;;8.18;1.08;;;;;;;;;;4990868;28;20082;-44
2021/10/06 03:41:00;;;;;;;1.20;0.80;;;;;;;;;;4988611;28;20165;-43
2021/10/06 03:43:25;;;;;;;2.20;1.23;;;;;;;;;;4990140;28;20050;-48
2021/10/06 03:45:50;;;;;;;1.67;1.05;;;;;;;;;;4987386;28;20026;-45
2021/10/06 03:48:16;;;;;;;1.48;0.93;;;;;;;;;;4980200;28;20517;-46
2021/10/06 03:50:41;;;;;;;2.63;1.23;;;;;;;;;;4988585;28;20542;-45
2021/10/06 03:53:06;;;;;;;1.13;0.75;;;;;;;;;;4990496;28;20034;-44
2021/10/06 03:55:32;;;;;;;3.03;1.15;;;;;;;;;;4987300;28;20665;-44
2021/10/06 03:57:57;;;;;;;6.30;0.73;;;;;;;;;;4988920;28;20541;-46
2021/10/06 04:00:22;;;;;;;2.05;1.08;;;;;;;;;;4993139;28;20034;-42
2021/10/06 04:02:48;;;;;;;2.40;0.93;;;;;;;;;;4989100;28;20037;-43
2021/10/06 04:05:13;;;;;;;2.17;1.27;;;;;;;;;;4982966;28;20049;-45
2021/10/06 04:07:39;;;;;;;5.07;1.10;;;;;;;;;;4985981;28;20022;-45
2021/10/06 04:10:05;;;;;;;5.47;1.15;;;;;;;;;;4987055;28;20025;-43
2021/10/06 04:12:30;;;;;;;2.20;1.13;;;;;;;;;;4991137;28;20034;-46
2021/10/06 04:14:55;;;;;;;1.23;0.68;;;;;;;;;;4990244;28;20029;-42
2021/10/06 04:17:21;;;;;;;0.95;0.68;;;;;;;;;;4991942;28;20027;-43
2021/10/06 04:19:46;;;;;;;1.48;0.60;;;;;;;;;;4986438;28;20042;-43
2021/10/06 04:22:12;;;;;;;2.28;0.60;;;;;;;;;;4986342;28;20038;-48
2021/10/06 04:24:37;;;;;;;3.35;0.85;;;;;;;;;;4987727;28;20045;-46
2021/10/06 04:27:02;;;;;;;3.88;0.98;;;;;;;;;;4992847;28;20030;-48
2021/10/06 04:29:28;;;;;;;2.58;1.35;;;;;;;;;;4986236;28;20033;-49
2021/10/06 04:31:53;;;;;;;3.13;1.05;;;;;;;;;;4987017;28;20070;-46
2021/10/06 04:34:18;;;;;;;9.95;1.67;;;;;;;;;;4988690;28;20030;-46
2021/10/06 04:36:44;;;;;;;1.88;0.93;;;;;;;;;;4986072;28;20712;-48
2021/10/06 04:39:09;;;;;;;7.65;4.03;;;;;;;;;;4985631;28;20030;-46
2021/10/06 04:41:34;;;;;;;4.10;2.75;;;;;;;;;;4989885;28;20042;-43
2021/10/06 04:44:01;;;;;;;1.42;0.90;;;;;;;;;;4989831;28;20053;-46
2021/10/06 04:46:27;;;;;;;2.13;0.60;;;;;;;;;;4991407;28;20044;-43
2021/10/06 04:48:52;;;;;;;2.13;1.17;;;;;;;;;;4986230;28;20527;-44
2021/10/06 04:51:18;;;;;;;1.20;0.60;;;;;;;;;;4989421;28;20126;-49
2021/10/06 04:53:43;;;;;;;2.53;1.73;;;;;;;;;;4988531;28;20695;-44
2021/10/06 04:56:08;;;;;;;8.32;2.97;;;;;;;;;;4985887;28;20109;-43
2021/10/06 04:58:33;;;;;;;3.22;1.55;;;;;;;;;;4983499;28;20073;-43
2021/10/06 05:00:59;;;;;;;5.30;1.65;;;;;;;;;;4986579;28;20083;-46
2021/10/06 05:03:24;;;;;;;9.27;0.95;;;;;;;;;;4987873;28;20025;-46
2021/10/06 05:05:49;;;;;;;4.00;3.42;;;;;;;;;;4985012;28;20065;-47
2021/10/06 05:08:15;;;;;;;3.88;1.33;;;;;;;;;;4987361;28;20079;-45
2021/10/06 05:10:40;;;;;;;6.90;1.42;;;;;;;;;;4989336;28;20022;-45
2021/10/06 05:13:05;;;;;;;5.80;1.00;;;;;;;;;;4986923;28;20031;-44
2021/10/06 05:15:31;;;;;;;3.83;1.48;;;;;;;;;;4982367;28;20038;-44
2021/10/06 05:17:56;;;;;;;3.05;1.17;;;;;;;;;;4990219;28;20041;-43
2021/10/06 05:20:22;;;;;;;7.07;0.68;;;;;;;;;;4984361;28;20444;-44
2021/10/06 05:22:47;;;;;;;1.90;1.13;;;;;;;;;;4983914;28;20035;-48
2021/10/06 05:25:12;;;;;;;1.13;0.77;;;;;;;;;;4986990;28;20027;-49
2021/10/06 05:27:37;;;;;;;1.70;1.20;;;;;;;;;;4992383;28;20034;-46
2021/10/06 05:30:07;;;;;;;6.05;2.38;;;;;;;;;;4985822;28;20022;-45
2021/10/06 05:32:32;;;;;;;3.80;2.25;;;;;;;;;;4985337;28;20026;-46
2021/10/06 05:34:58;;;;;;;7.35;1.45;;;;;;;;;;4989399;28;20030;-47
2021/10/06 05:37:23;;;;;;;4.18;1.13;;;;;;;;;;4988229;28;20104;-47
2021/10/06 05:39:48;;;;;;;1.02;0.60;;;;;;;;;;4986895;28;20010;-45
2021/10/06 05:42:14;;;;;;;6.72;1.00;;;;;;;;;;4982119;28;20447;-43
2021/10/06 05:44:39;;;;;;;1.92;0.82;;;;;;;;;;4987791;28;20573;-48
2021/10/06 05:47:04;;;;;;;1.35;0.80;;;;;;;;;;4983230;28;20467;-50
2021/10/06 05:49:30;;;;;;;4.28;1.45;;;;;;;;;;4985836;28;20053;-48
2021/10/06 05:51:55;;;;;;;5.68;1.55;;;;;;;;;;4993142;28;20056;-49
2021/10/06 05:54:21;;;;;;;14.50;5.78;;;;;;;;;;4983762;28;20091;-49
2021/10/06 05:56:47;;;;;;;7.93;4.15;;;;;;;;;;4986246;28;20034;-43
2021/10/06 05:59:12;;;;;;;11.77;3.28;;;;;;;;;;4987365;28;20030;-44
2021/10/06 06:01:37;;;;;;;4.78;1.73;;;;;;;;;;4986032;28;20033;-48
2021/10/06 06:04:03;;;;;;;9.27;1.13;;;;;;;;;;4989751;28;20022;-44
2021/10/06 06:06:28;;;;;;;4.50;1.08;;;;;;;;;;4990844;28;20029;-43
2021/10/06 06:08:53;;;;;;;5.75;1.63;;;;;;;;;;4990094;28;20472;-50
2021/10/06 06:11:20;;;;;;;3.38;2.17;;;;;;;;;;4990126;28;20045;-44
2021/10/06 06:13:45;;;;;;;3.10;1.40;;;;;;;;;;4987604;28;20022;-45
2021/10/06 06:16:11;;;;;;;3.20;1.08;;;;;;;;;;4990549;28;20030;-46
2021/10/06 06:18:36;;;;;;;9.05;3.05;;;;;;;;;;4985266;28;20576;-44
2021/10/06 06:21:01;;;;;;;3.83;2.05;;;;;;;;;;4987488;28;20061;-45
2021/10/06 06:23:28;;;;;;;10.65;1.70;;;;;;;;;;4989729;28;20038;-49
2021/10/06 06:25:53;;;;;;;15.98;4.00;;;;;;;;;;4989447;28;20080;-44
2021/10/06 06:28:19;;;;;;;26.15;6.05;;;;;;;;;;4988931;28;20330;-45
2021/10/06 06:30:44;;;;;;;16.77;3.38;;;;;;;;;;4981263;28;20402;-46
2021/10/06 06:33:09;;;;;;;43.42;8.10;;;;;;;;;;4989561;28;20054;-46
2021/10/06 06:35:35;;;;;;;35.00;12.88;;;;;;;;;;4985969;28;20104;-46
2021/10/06 06:38:00;;;;;;;21.52;4.25;;;;;;;;;;4984244;28;20056;-44
2021/10/06 06:40:25;;;;;;;4.00;1.52;;;;;;;;;;4982844;28;20022;-50
2021/10/06 06:42:51;;;;;;;15.95;5.20;;;;;;;;;;4981548;28;20808;-48
2021/10/06 06:45:17;;;;;;;13.63;2.60;;;;;;;;;;4986043;28;20454;-46
2021/10/06 06:47:42;;;;;;;16.65;1.75;;;;;;;;;;4987118;28;20033;-45
2021/10/06 06:50:08;;;;;;;12.65;1.60;;;;;;;;;;4983606;28;20486;-47
2021/10/06 06:52:33;;;;;;;7.35;1.77;;;;;;;;;;4990862;28;20113;-49
2021/10/06 06:54:59;;;;;;;3.45;0.93;;;;;;;;;;4984594;28;20057;-42
2021/10/06 06:57:25;;;;;;;10.60;6.88;;;;;;;;;;4991123;28;20026;-45
2021/10/06 06:59:50;;;;;;;13.35;7.18;;;;;;;;;;4987337;28;20487;-48
2021/10/06 07:02:15;;;;;;;6.50;4.80;;;;;;;;;;4982928;28;20037;-44
2021/10/06 07:04:41;;;;;;;5.28;3.72;;;;;;;;;;4989817;28;20096;-46
2021/10/06 07:07:06;;;;;;;11.85;5.82;;;;;;;;;;4983304;28;20150;-47
2021/10/06 07:09:35;;;;;;;11.52;7.00;;;;;;;;;;4988064;28;20030;-45
2021/10/06 07:12:00;;;;;;;18.20;10.68;;;;;;;;;;4989094;28;20058;-45
2021/10/06 07:14:26;;;;;;;17.70;10.80;;;;;;;;;;4986626;28;20072;-44
2021/10/06 07:16:51;;;;;;;14.57;8.40;;;;;;;;;;4987110;28;20028;-45
2021/10/06 07:19:16;;;;;;;17.42;9.07;;;;;;;;;;4990244;28;20450;-43
2021/10/06 07:21:44;;;;;;;9.25;6.25;;;;;;;;;;4987261;28;20066;-43
2021/10/06 07:24:11;;;;;;;37.22;10.25;;;;;;;;;;4990875;28;20033;-46
2021/10/06 07:26:36;;;;;;;48.20;11.82;;;;;;;;;;4987385;28;20022;-45
2021/10/06 07:29:01;;;;;;;40.03;10.30;;;;;;;;;;4991545;28;20599;-49
2021/10/06 07:31:26;;;;;;;14.00;4.30;;;;;;;;;;4984808;28;20129;-45
2021/10/06 07:33:52;;;;;;;9.45;5.32;;;;;;;;;;4985344;28;20022;-47
2021/10/06 07:36:17;;;;;;;5.15;2.42;;;;;;;;;;4989255;28;20034;-43
2021/10/06 07:38:43;;;;;;;3.85;2.35;;;;;;;;;;4987566;28;20053;-44
2021/10/06 07:41:08;;;;;;;7.55;2.85;;;;;;;;;;4986053;28;20498;-47
2021/10/06 07:43:34;;;;;;;20.17;4.00;;;;;;;;;;4990768;28;20512;-44
2021/10/06 07:45:59;;;;;;;12.48;3.03;;;;;;;;;;4982203;28;20014;-45
2021/10/06 07:48:24;;;;;;;5.22;1.85;;;;;;;;;;4980876;28;20026;-45
2021/10/06 07:50:50;;;;;;;4.40;1.50;;;;;;;;;;4988735;28;20058;-46
2021/10/06 07:53:15;;;;;;;12.68;3.80;;;;;;;;;;4986569;28;20022;-44
2021/10/06 07:55:40;;;;;;;4.88;3.53;;;;;;;;;;4991317;28;20030;-46
2021/10/06 07:58:05;;;;;;;4.05;1.05;;;;;;;;;;4987475;28;20069;-49
2021/10/06 08:00:31;;;;;;;1.70;0.70;;;;;;;;;;4990623;28;20061;-43
2021/10/06 08:02:56;;;;;;;4.57;0.63;;;;;;;;;;4988698;28;20022;-42
2021/10/06 08:05:22;;;;;;;3.08;1.13;;;;;;;;;;4985583;28;20738;-47
2021/10/06 08:07:47;;;;;;;4.60;0.80;;;;;;;;;;4987426;28;20030;-44
2021/10/06 08:10:13;;;;;;;1.02;0.40;;;;;;;;;;4987397;28;20460;-46
2021/10/06 08:12:39;;;;;;;1.13;0.40;;;;;;;;;;4987448;28;20502;-43
2021/10/06 08:15:04;;;;;;;1.23;1.00;;;;;;;;;;4980101;28;20018;-48
2021/10/06 08:17:30;;;;;;;3.83;0.70;;;;;;;;;;4989289;28;20034;-46
2021/10/06 08:19:55;;;;;;;1.08;0.32;;;;;;;;;;4981863;28;20037;-47
2021/10/06 08:22:20;;;;;;;1.42;0.50;;;;;;;;;;4983788;28;20026;-44
2021/10/06 08:24:46;;;;;;;3.25;0.95;;;;;;;;;;4984912;28;20115;-45
2021/10/06 08:27:13;;;;;;;13.55;1.45;;;;;;;;;;4985233;28;20025;-45
2021/10/06 08:29:38;;;;;;;3.92;1.40;;;;;;;;;;4981326;28;20491;-46
2021/10/06 08:32:04;;;;;;;5.10;0.80;;;;;;;;;;4982129;28;20110;-44
2021/10/06 08:34:31;;;;;;;4.30;0.63;;;;;;;;;;4987752;28;20030;-48
2021/10/06 08:36:56;;;;;;;0.90;0.68;;;;;;;;;;4988324;28;20030;-44
2021/10/06 08:39:22;;;;;;;1.23;0.70;;;;;;;;;;4989692;28;20029;-43
2021/10/06 08:41:47;;;;;;;4.50;2.90;;;;;;;;;;4982127;28;20586;-44
2021/10/06 08:44:12;;;;;;;5.97;5.28;;;;;;;;;;4989004;28;20075;-43
2021/10/06 08:46:38;;;;;;;9.18;4.25;;;;;;;;;;4984487;28;20497;-47
2021/10/06 08:49:03;;;;;;;7.55;4.65;;;;;;;;;;4981391;28;20037;-46
2021/10/06 08:51:28;;;;;;;11.00;9.88;;;;;;;;;;4981653;28;20018;-44
2021/10/06 08:53:54;;;;;;;24.92;18.90;;;;;;;;;;4985953;28;20018;-45
2021/10/06 08:56:21;;;;;;;15.30;12.30;;;;;;;;;;4984240;28;20030;-46
2021/10/06 08:58:47;;;;;;;14.65;10.27;;;;;;;;;;4983822;28;20030;-48
2021/10/06 09:01:21;;;;;;;11.57;9.15;;;;;;;;;;4984103;28;20033;-50
2021/10/06 09:03:52;;;;;;;6.35;5.00;;;;;;;;;;4982983;28;20057;-44
2021/10/06 09:06:18;;;;;;;6.18;5.45;;;;;;;;;;4982660;28;20041;-49
2021/10/06 09:08:44;;;;;;;5.82;3.83;;;;;;;;;;4985153;28;20523;-43
2021/10/06 09:11:10;;;;;;;11.50;3.92;;;;;;;;;;4982700;28;20026;-49
2021/10/06 09:13:36;;;;;;;5.45;2.70;;;;;;;;;;4984137;28;20750;-42
2021/10/06 09:16:02;;;;;;;4.40;1.95;;;;;;;;;;4983397;28;20105;-46
2021/10/06 09:18:28;;;;;;;10.25;1.85;;;;;;;;;;4988171;28;20033;-46
2021/10/06 09:20:56;;;;;;;6.07;2.78;;;;;;;;;;4987277;28;20069;-46
2021/10/06 09:23:22;;;;;;;10.18;2.78;;;;;;;;;;4986116;28;20030;-41
2021/10/06 09:25:49;;;;;;;4.30;1.92;;;;;;;;;;4987869;28;20117;-42
2021/10/06 09:28:18;;;;;;;6.25;1.15;;;;;;;;;;4990664;28;20375;-47
2021/10/06 09:30:44;;;;;;;3.97;1.25;;;;;;;;;;4990702;28;20044;-44
2021/10/06 09:33:09;;;;;;;3.33;1.52;;;;;;;;;;4982846;28;20762;-44
2021/10/06 09:35:34;;;;;;;4.03;1.35;;;;;;;;;;4988694;28;20083;-44
2021/10/06 09:37:59;;;;;;;2.85;1.27;;;;;;;;;;4988727;28;20125;-42
2021/10/06 09:40:29;;;;;;;2.08;0.75;;;;;;;;;;4984154;28;20130;-43
2021/10/06 09:42:58;;;;;;;0.85;0.43;;;;;;;;;;4984785;28;20023;-41
2021/10/06 09:45:27;;;;;;;1.30;0.82;;;;;;;;;;4989042;28;20022;-41
2021/10/06 09:48:08;;;;;;;5.80;1.13;;;;;;;;;;4986285;28;20039;-47
2021/10/06 09:50:34;;;;;;;1.10;0.88;;;;;;;;;;4986017;28;20033;-44
2021/10/06 09:53:12;;;;;;;3.28;1.33;;;;;;;;;;4987675;28;20014;-44
2021/10/06 09:55:38;;;;;;;6.43;1.33;;;;;;;;;;4986074;28;20045;-47
2021/10/06 09:58:04;;;;;;;4.90;1.30;;;;;;;;;;4991904;28;20125;-46
2021/10/06 10:00:29;;;;;;;5.55;2.08;;;;;;;;;;4989633;28;20026;-47
2021/10/06 10:02:57;;;;;;;6.80;0.75;;;;;;;;;;4985789;28;20313;-46
2021/10/06 10:05:23;;;;;;;9.60;2.95;;;;;;;;;;4987540;28;20030;-42
2021/10/06 10:07:50;;;;;;;4.95;2.13;;;;;;;;;;4986935;28;20034;-43
2021/10/06 10:10:16;;;;;;;4.68;1.00;;;;;;;;;;4990093;28;20030;-44
2021/10/06 10:12:41;;;;;;;9.68;2.35;;;;;;;;;;4985932;28;20026;-45
2021/10/06 10:15:07;;;;;;;10.57;1.77;;;;;;;;;;4986664;28;20030;-42
2021/10/06 10:17:32;;;;;;;8.18;1.67;;;;;;;;;;4983108;28;20056;-44
2021/10/06 10:19:59;;;;;;;14.73;2.45;;;;;;;;;;4982944;28;20041;-43
2021/10/06 10:22:26;;;;;;;13.05;1.80;;;;;;;;;;4990478;28;20561;-45
2021/10/06 10:24:52;;;;;;;2.92;1.10;;;;;;;;;;4990498;28;20129;-43
2021/10/06 10:27:21;;;;;;;6.15;1.88;;;;;;;;;;4989031;28;20052;-43
2021/10/06 10:29:46;;;;;;;7.53;1.38;;;;;;;;;;4989593;28;20018;-44
2021/10/06 10:32:16;;;;;;;4.20;1.92;;;;;;;;;;4985898;28;20471;-44
2021/10/06 10:34:59;;;;;;;4.68;2.00;;;;;;;;;;4991013;28;20057;-41
2021/10/06 10:37:44;;;;;;;12.82;2.38;;;;;;;;;;4987892;28;20032;-45
2021/10/06 10:40:27;;;;;;;4.97;1.92;;;;;;;;;;4985415;28;20492;-45
2021/10/06 10:43:00;;;;;;;6.97;2.58;;;;;;;;;;4984451;28;20100;-49
2021/10/06 10:46:05;;;;;;;20.33;2.65;;;;;;;;;;4984439;28;20487;-42
2021/10/06 10:48:49;;;;;;;4.32;1.40;;;;;;;;;;5039484;28;20051;-42
2021/10/06 10:51:15;;;;;;;4.82;0.90;;;;;;;;;;5039931;28;20151;-48
2021/10/06 10:53:50;;;;;;;7.60;2.55;;;;;;;;;;5009161;28;20038;-46
2021/10/06 10:56:23;;;;;;;6.43;2.20;;;;;;;;;;4989733;28;20187;-43
2021/10/06 10:59:02;;;;;;;13.18;2.60;;;;;;;;;;4983638;28;20037;-44
2021/10/06 11:01:37;;;;;;;6.72;1.95;;;;;;;;;;4989430;28;20022;-43
2021/10/06 11:04:16;;;;;;;4.53;0.95;;;;;;;;;;4982638;28;20026;-44
2021/10/06 11:06:42;;;;;;;4.90;2.22;;;;;;;;;;4985177;28;20033;-45
2021/10/06 11:09:26;;;;;;;1.48;0.80;;;;;;;;;;4981940;28;20061;-43
2021/10/06 11:11:51;;;;;;;8.50;1.98;;;;;;;;;;4984777;28;20026;-42
2021/10/06 11:14:23;;;;;;;11.52;1.67;;;;;;;;;;4983782;28;20058;-45
2021/10/06 11:17:09;;;;;;;6.93;1.98;;;;;;;;;;4984058;28;20034;-47
2021/10/06 11:19:48;;;;;;;10.10;3.72;;;;;;;;;;4980979;28;20011;-45
2021/10/06 11:22:22;;;;;;;3.28;1.25;;;;;;;;;;4982779;28;20040;-44
2021/10/06 11:24:50;;;;;;;7.97;1.83;;;;;;;;;;4985932;28;20550;-46
2021/10/06 11:27:16;;;;;;;16.02;2.08;;;;;;;;;;4987048;28;20019;-42
2021/10/06 11:29:42;;;;;;;10.63;3.00;;;;;;;;;;4985011;28;20034;-44
2021/10/06 11:32:07;;;;;;;9.23;1.73;;;;;;;;;;4982020;28;20053;-43
2021/10/06 11:34:43;;;;;;;7.95;2.33;;;;;;;;;;4988844;28;20022;-41
2021/10/06 11:37:13;;;;;;;4.32;1.88;;;;;;;;;;4990206;28;20138;-41
2021/10/06 11:39:38;;;;;;;5.88;1.42;;;;;;;;;;4986220;28;20026;-47
2021/10/06 11:42:04;;;;;;;8.07;2.28;;;;;;;;;;4983682;28;20041;-46
2021/10/06 11:44:30;;;;;;;9.57;2.15;;;;;;;;;;4990116;28;20053;-44
2021/10/06 11:46:57;;;;;;;4.70;1.75;;;;;;;;;;4988188;28;20044;-42
2021/10/06 11:49:22;;;;;;;3.70;2.33;;;;;;;;;;4989373;28;20026;-43
2021/10/06 11:51:48;;;;;;;4.10;1.35;;;;;;;;;;4985478;28;20031;-44
2021/10/06 11:54:17;;;;;;;4.38;1.85;;;;;;;;;;4986067;28;20033;-43
2021/10/06 11:56:43;;;;;;;3.72;1.42;;;;;;;;;;4982825;28;20041;-44
2021/10/06 11:59:10;;;;;;;3.65;1.83;;;;;;;;;;4985203;28;20348;-43
2021/10/06 12:01:36;;;;;;;14.25;2.83;;;;;;;;;;4989545;28;20666;-47
2021/10/06 12:04:14;;;;;;;8.65;3.13;;;;;;;;;;4984441;28;20037;-42
2021/10/06 12:06:41;;;;;;;7.53;2.03;;;;;;;;;;4988105;28;20032;-45
2021/10/06 12:09:09;;;;;;;14.05;2.72;;;;;;;;;;4987156;28;20555;-42
2021/10/06 12:11:45;;;;;;;5.45;1.77;;;;;;;;;;4988633;28;20022;-43
2021/10/06 12:14:18;;;;;;;8.15;2.53;;;;;;;;;;4984722;28;20481;-47
2021/10/06 12:16:43;;;;;;;12.43;3.65;;;;;;;;;;4985284;28;20030;-45
2021/10/06 12:19:09;;;;;;;9.38;3.05;;;;;;;;;;4993514;28;20453;-48
2021/10/06 12:21:34;;;;;;;15.02;2.33;;;;;;;;;;4981162;28;20580;-42
2021/10/06 12:24:00;;;;;;;9.70;2.30;;;;;;;;;;4988270;28;20104;-45
2021/10/06 12:26:30;;;;;;;13.48;2.05;;;;;;;;;;4989021;28;20030;-43
2021/10/06 12:28:58;;;;;;;27.27;3.92;;;;;;;;;;4987080;28;20022;-45
2021/10/06 12:31:27;;;;;;;9.93;3.17;;;;;;;;;;4987827;28;20033;-44
2021/10/06 12:34:07;;;;;;;8.95;2.63;;;;;;;;;;4986101;28;20018;-45
2021/10/06 12:36:32;;;;;;;9.82;1.48;;;;;;;;;;4986591;28;20064;-45
2021/10/06 12:38:58;;;;;;;37.22;3.88;;;;;;;;;;4983474;28;20058;-44
2021/10/06 12:41:28;;;;;;;10.52;1.85;;;;;;;;;;4985994;28;20938;-46
2021/10/06 12:43:53;;;;;;;10.40;2.47;;;;;;;;;;4986920;28;20062;-45
2021/10/06 12:46:22;;;;;;;7.68;3.03;;;;;;;;;;4988728;28;20035;-43
2021/10/06 12:48:49;;;;;;;7.25;2.38;;;;;;;;;;4979430;28;20410;-45
2021/10/06 12:51:19;;;;;;;10.68;2.20;;;;;;;;;;4987689;28;20411;-42
2021/10/06 12:53:50;;;;;;;17.02;3.53;;;;;;;;;;4986917;28;20026;-47
2021/10/06 12:56:25;;;;;;;12.90;2.75;;;;;;;;;;4983117;28;20074;-44
2021/10/06 12:59:02;;;;;;;10.68;1.75;;;;;;;;;;4986334;28;20038;-48
2021/10/06 13:01:28;;;;;;;7.05;1.55;;;;;;;;;;4981851;28;20071;-44
2021/10/06 13:03:53;;;;;;;8.82;3.00;;;;;;;;;;4986119;28;20027;-43
2021/10/06 13:06:20;;;;;;;11.10;2.63;;;;;;;;;;4980468;28;20026;-46
2021/10/06 13:08:49;;;;;;;8.60;2.30;;;;;;;;;;4987828;28;20049;-44
2021/10/06 13:11:14;;;;;;;19.55;2.50;;;;;;;;;;4989230;28;20030;-48
2021/10/06 13:13:40;;;;;;;6.38;2.90;;;;;;;;;;4978458;28;20544;-44
2021/10/06 13:16:05;;;;;;;9.07;2.55;;;;;;;;;;4989234;28;20482;-42
2021/10/06 13:18:30;;;;;;;11.48;2.72;;;;;;;;;;4989067;28;20042;-43
2021/10/06 13:20:56;;;;;;;4.60;2.13;;;;;;;;;;4985155;28;20026;-48
2021/10/06 13:23:21;;;;;;;6.50;2.53;;;;;;;;;;4988386;28;20416;-48
2021/10/06 13:25:46;;;;;;;7.57;2.63;;;;;;;;;;4985160;28;20490;-44
2021/10/06 13:28:12;;;;;;;10.55;1.63;;;;;;;;;;4986018;28;20682;-45
2021/10/06 13:30:38;;;;;;;9.23;2.40;;;;;;;;;;4983750;28;20103;-43
2021/10/06 13:33:04;;;;;;;9.43;3.00;;;;;;;;;;4987317;28;20023;-46
2021/10/06 13:35:29;;;;;;;10.45;4.10;;;;;;;;;;4983550;28;20035;-43
2021/10/06 13:37:55;;;;;;;11.43;3.20;;;;;;;;;;4988649;28;20030;-47
2021/10/06 13:40:20;;;;;;;9.57;2.15;;;;;;;;;;4988349;28;20034;-44
2021/10/06 13:42:45;;;;;;;5.18;1.65;;;;;;;;;;4986154;28;20032;-45
2021/10/06 13:45:10;;;;;;;5.07;1.75;;;;;;;;;;4988917;28;20057;-43
2021/10/06 13:47:36;;;;;;;8.05;2.65;;;;;;;;;;4985124;28;20022;-45
2021/10/06 13:50:01;;;;;;;9.73;3.05;;;;;;;;;;4986845;28;20647;-43
2021/10/06 13:52:26;;;;;;;4.03;1.85;;;;;;;;;;4986087;28;20048;-42
2021/10/06 13:54:52;;;;;;;5.93;1.80;;;;;;;;;;4983713;28;20479;-47
2021/10/06 13:57:17;;;;;;;7.38;1.77;;;;;;;;;;4986124;28;20030;-46
2021/10/06 13:59:42;;;;;;;6.97;2.22;;;;;;;;;;4985589;28;20488;-47
2021/10/06 14:02:08;;;;;;;6.25;1.63;;;;;;;;;;4985864;28;20023;-48
2021/10/06 14:04:33;;;;;;;4.15;1.70;;;;;;;;;;4987219;28;20082;-46
2021/10/06 14:06:58;;;;;;;6.90;2.30;;;;;;;;;;4984655;28;20498;-45
2021/10/06 14:09:24;;;;;;;6.88;1.92;;;;;;;;;;4982596;28;20026;-41
2021/10/06 14:11:49;;;;;;;5.80;2.40;;;;;;;;;;4987316;28;20095;-41
2021/10/06 14:14:14;;;;;;;9.40;3.17;;;;;;;;;;4985981;28;20037;-44
2021/10/06 14:16:40;;;;;;;3.35;1.67;;;;;;;;;;4987372;28;20103;-44
2021/10/06 14:19:06;;;;;;;7.05;1.92;;;;;;;;;;4986523;28;20123;-48
2021/10/06 14:21:31;;;;;;;8.73;2.45;;;;;;;;;;4984596;28;20969;-44
2021/10/06 14:23:57;;;;;;;21.30;3.17;;;;;;;;;;4986147;28;20117;-44
2021/10/06 14:26:23;;;;;;;8.95;2.33;;;;;;;;;;4986035;28;20048;-41
2021/10/06 14:28:48;;;;;;;6.20;2.17;;;;;;;;;;4987028;28;20053;-42
2021/10/06 14:31:13;;;;;;;4.85;1.42;;;;;;;;;;4981976;28;20408;-44
2021/10/06 14:33:40;;;;;;;8.85;1.42;;;;;;;;;;4990466;28;20526;-47
2021/10/06 14:36:05;;;;;;;8.43;2.17;;;;;;;;;;4991036;28;20545;-47
2021/10/06 14:38:30;;;;;;;11.70;2.50;;;;;;;;;;4986591;28;20030;-43